sensor_id;sensor_type;location;lat;lon;timestamp;pressure;altitude;pressure_sealevel;temperature;humidity
51245;BME280;37840;47.562;18.738;2023-04-20T00:02:12;99635.94;;;8.77;79.58
51245;BME280;37840;47.562;18.738;2023-04-20T00:07:24;99633.44;;;8.62;80.29
51245;BME280;37840;47.562;18.738;2023-04-20T00:09:51;99625.47;;;8.76;79.65
51245;BME280;37840;47.562;18.738;2023-04-20T00:12:17;99617.53;;;8.89;79.15
51245;BME280;37840;47.562;18.738;2023-04-20T00:14:43;99624.03;;;8.97;79.03
51245;BME280;37840;47.562;18.738;2023-04-20T00:17:09;99618.47;;;8.88;79.14
51245;BME280;37840;47.562;18.738;2023-04-20T00:19:38;99619.94;;;8.52;80.60
51245;BME280;37840;47.562;18.738;2023-04-20T00:22:03;99622.22;;;8.71;79.96
51245;BME280;37840;47.562;18.738;2023-04-20T00:24:29;99611.03;;;8.80;79.31
51245;BME280;37840;47.562;18.738;2023-04-20T00:26:55;99621.78;;;8.91;78.99
51245;BME280;37840;47.562;18.738;2023-04-20T00:29:21;99629.25;;;8.99;78.70
51245;BME280;37840;47.562;18.738;2023-04-20T00:31:47;99624.00;;;8.85;79.33
51245;BME280;37840;47.562;18.738;2023-04-20T00:34:14;99629.75;;;8.91;78.82
51245;BME280;37840;47.562;18.738;2023-04-20T00:36:40;99630.19;;;8.98;78.64
51245;BME280;37840;47.562;18.738;2023-04-20T00:39:06;99636.78;;;9.05;78.17
51245;BME280;37840;47.562;18.738;2023-04-20T00:41:32;99630.22;;;9.11;77.63
51245;BME280;37840;47.562;18.738;2023-04-20T00:43:58;99635.44;;;9.12;77.29
51245;BME280;37840;47.562;18.738;2023-04-20T00:46:24;99629.53;;;8.94;78.18
51245;BME280;37840;47.562;18.738;2023-04-20T00:48:51;99627.84;;;8.93;78.28
51245;BME280;37840;47.562;18.738;2023-04-20T00:51:19;99630.69;;;8.90;78.31
51245;BME280;37840;47.562;18.738;2023-04-20T00:53:45;99631.66;;;8.89;78.17
51245;BME280;37840;47.562;18.738;2023-04-20T00:56:13;99628.19;;;8.74;79.11
51245;BME280;37840;47.562;18.738;2023-04-20T00:58:41;99626.50;;;8.73;79.02
51245;BME280;37840;47.562;18.738;2023-04-20T01:01:07;99631.19;;;8.83;78.43
51245;BME280;37840;47.562;18.738;2023-04-20T01:03:34;99633.50;;;8.74;78.81
51245;BME280;37840;47.562;18.738;2023-04-20T01:06:01;99631.81;;;8.73;78.89
51245;BME280;37840;47.562;18.738;2023-04-20T01:08:27;99625.53;;;8.74;78.71
51245;BME280;37840;47.562;18.738;2023-04-20T01:10:53;99632.00;;;8.70;79.18
51245;BME280;37840;47.562;18.738;2023-04-20T01:13:19;99630.94;;;8.73;78.60
51245;BME280;37840;47.562;18.738;2023-04-20T01:15:45;99628.63;;;8.81;77.98
51245;BME280;37840;47.562;18.738;2023-04-20T01:18:11;99632.69;;;8.60;78.52
51245;BME280;37840;47.562;18.738;2023-04-20T01:20:38;99637.00;;;8.19;80.15
51245;BME280;37840;47.562;18.738;2023-04-20T01:23:04;99632.53;;;8.34;79.80
51245;BME280;37840;47.562;18.738;2023-04-20T01:25:30;99637.63;;;8.51;79.26
51245;BME280;37840;47.562;18.738;2023-04-20T01:27:56;99636.09;;;8.62;78.31
51245;BME280;37840;47.562;18.738;2023-04-20T01:30:22;99624.91;;;8.44;78.62
51245;BME280;37840;47.562;18.738;2023-04-20T01:32:48;99623.44;;;8.52;78.65
51245;BME280;37840;47.562;18.738;2023-04-20T01:35:14;99620.50;;;8.57;78.19
51245;BME280;37840;47.562;18.738;2023-04-20T01:37:41;99620.19;;;8.62;77.97
51245;BME280;37840;47.562;18.738;2023-04-20T01:40:11;99623.38;;;8.67;77.31
51245;BME280;37840;47.562;18.738;2023-04-20T01:42:37;99620.84;;;8.65;77.12
51245;BME280;37840;47.562;18.738;2023-04-20T01:45:05;99618.09;;;8.67;77.02
51245;BME280;37840;47.562;18.738;2023-04-20T01:47:32;99622.25;;;8.44;77.76
51245;BME280;37840;47.562;18.738;2023-04-20T01:49:58;99616.34;;;8.38;77.89
51245;BME280;37840;47.562;18.738;2023-04-20T01:52:24;99617.03;;;8.42;78.04
51245;BME280;37840;47.562;18.738;2023-04-20T01:54:50;99621.06;;;8.48;77.39
51245;BME280;37840;47.562;18.738;2023-04-20T01:57:16;99628.84;;;8.51;76.26
51245;BME280;37840;47.562;18.738;2023-04-20T01:59:42;99627.87;;;8.52;76.14
51245;BME280;37840;47.562;18.738;2023-04-20T02:02:08;99616.19;;;8.42;76.23
51245;BME280;37840;47.562;18.738;2023-04-20T02:04:34;99624.12;;;8.42;76.35
51245;BME280;37840;47.562;18.738;2023-04-20T02:07:00;99618.53;;;8.46;76.31
51245;BME280;37840;47.562;18.738;2023-04-20T02:09:26;99622.13;;;8.45;76.37
51245;BME280;37840;47.562;18.738;2023-04-20T02:11:52;99621.19;;;8.46;76.53
51245;BME280;37840;47.562;18.738;2023-04-20T02:14:18;99622.13;;;8.45;76.60
51245;BME280;37840;47.562;18.738;2023-04-20T02:16:44;99611.81;;;8.41;76.54
51245;BME280;37840;47.562;18.738;2023-04-20T02:19:10;99610.09;;;8.40;76.02
51245;BME280;37840;47.562;18.738;2023-04-20T02:21:36;99616.56;;;8.35;76.04
51245;BME280;37840;47.562;18.738;2023-04-20T02:24:02;99610.28;;;8.36;76.01
51245;BME280;37840;47.562;18.738;2023-04-20T02:26:28;99615.78;;;8.33;75.86
51245;BME280;37840;47.562;18.738;2023-04-20T02:28:53;99616.84;;;8.31;76.12
51245;BME280;37840;47.562;18.738;2023-04-20T02:31:19;99620.44;;;8.30;75.88
51245;BME280;37840;47.562;18.738;2023-04-20T02:33:45;99616.28;;;8.26;75.79
51245;BME280;37840;47.562;18.738;2023-04-20T02:36:12;99613.37;;;8.02;76.34
51245;BME280;37840;47.562;18.738;2023-04-20T02:38:38;99606.00;;;7.92;76.97
51245;BME280;37840;47.562;18.738;2023-04-20T02:41:04;99607.03;;;7.90;77.11
51245;BME280;37840;47.562;18.738;2023-04-20T02:43:30;99613.34;;;7.59;78.29
51245;BME280;37840;47.562;18.738;2023-04-20T02:45:56;99622.16;;;7.45;79.02
51245;BME280;37840;47.562;18.738;2023-04-20T02:48:22;99628.37;;;7.44;79.50
51245;BME280;37840;47.562;18.738;2023-04-20T02:50:47;99628.31;;;7.60;78.93
51245;BME280;37840;47.562;18.738;2023-04-20T02:53:13;99627.94;;;7.66;78.52
51245;BME280;37840;47.562;18.738;2023-04-20T02:55:39;99633.72;;;7.72;78.57
51245;BME280;37840;47.562;18.738;2023-04-20T02:58:05;99640.53;;;7.76;78.19
51245;BME280;37840;47.562;18.738;2023-04-20T03:00:31;99634.19;;;7.79;77.99
51245;BME280;37840;47.562;18.738;2023-04-20T03:02:57;99628.50;;;7.85;77.53
51245;BME280;37840;47.562;18.738;2023-04-20T03:05:23;99636.66;;;7.82;77.08
51245;BME280;37840;47.562;18.738;2023-04-20T03:07:49;99637.59;;;7.81;76.95
51245;BME280;37840;47.562;18.738;2023-04-20T03:10:15;99637.41;;;7.84;76.90
51245;BME280;37840;47.562;18.738;2023-04-20T03:12:41;99638.16;;;7.86;76.87
51245;BME280;37840;47.562;18.738;2023-04-20T03:15:08;99633.59;;;7.88;76.81
51245;BME280;37840;47.562;18.738;2023-04-20T03:17:34;99635.69;;;7.69;78.20
51245;BME280;37840;47.562;18.738;2023-04-20T03:20:00;99635.78;;;7.67;78.81
51245;BME280;37840;47.562;18.738;2023-04-20T03:22:25;99633.63;;;7.74;78.99
51245;BME280;37840;47.562;18.738;2023-04-20T03:24:51;99635.13;;;7.78;79.49
51245;BME280;37840;47.562;18.738;2023-04-20T03:27:17;99632.50;;;7.78;79.81
51245;BME280;37840;47.562;18.738;2023-04-20T03:29:43;99630.50;;;7.82;79.52
51245;BME280;37840;47.562;18.738;2023-04-20T03:32:09;99640.16;;;7.83;79.10
51245;BME280;37840;47.562;18.738;2023-04-20T03:34:35;99638.25;;;7.85;78.84
51245;BME280;37840;47.562;18.738;2023-04-20T03:37:01;99639.78;;;7.89;78.58
51245;BME280;37840;47.562;18.738;2023-04-20T03:39:27;99638.16;;;7.86;78.17
51245;BME280;37840;47.562;18.738;2023-04-20T03:41:53;99639.94;;;7.86;77.87
51245;BME280;37840;47.562;18.738;2023-04-20T03:44:19;99638.91;;;7.88;77.08
51245;BME280;37840;47.562;18.738;2023-04-20T03:46:45;99639.28;;;7.68;77.25
51245;BME280;37840;47.562;18.738;2023-04-20T03:49:11;99650.16;;;7.33;79.18
51245;BME280;37840;47.562;18.738;2023-04-20T03:51:37;99648.47;;;7.32;79.14
51245;BME280;37840;47.562;18.738;2023-04-20T03:54:02;99648.97;;;7.39;78.96
51245;BME280;37840;47.562;18.738;2023-04-20T03:56:30;99650.22;;;7.47;78.91
51245;BME280;37840;47.562;18.738;2023-04-20T03:58:56;99654.38;;;7.51;78.36
51245;BME280;37840;47.562;18.738;2023-04-20T04:01:22;99660.03;;;7.45;78.58
51245;BME280;37840;47.562;18.738;2023-04-20T04:03:48;99656.53;;;7.45;78.71
51245;BME280;37840;47.562;18.738;2023-04-20T04:06:14;99650.87;;;7.51;78.71
51245;BME280;37840;47.562;18.738;2023-04-20T04:08:40;99655.97;;;7.54;78.71
51245;BME280;37840;47.562;18.738;2023-04-20T04:11:06;99653.06;;;7.59;78.63
51245;BME280;37840;47.562;18.738;2023-04-20T04:13:31;99652.88;;;7.62;78.21
51245;BME280;37840;47.562;18.738;2023-04-20T04:15:57;99647.22;;;7.68;78.00
51245;BME280;37840;47.562;18.738;2023-04-20T04:18:23;99654.97;;;7.71;78.29
51245;BME280;37840;47.562;18.738;2023-04-20T04:20:49;99653.00;;;7.74;78.57
51245;BME280;37840;47.562;18.738;2023-04-20T04:23:16;99652.72;;;7.79;77.77
51245;BME280;37840;47.562;18.738;2023-04-20T04:25:42;99655.19;;;7.82;77.63
51245;BME280;37840;47.562;18.738;2023-04-20T04:28:08;99662.94;;;7.85;77.76
51245;BME280;37840;47.562;18.738;2023-04-20T04:30:34;99660.19;;;7.87;77.91
51245;BME280;37840;47.562;18.738;2023-04-20T04:33:00;99653.94;;;7.88;78.17
51245;BME280;37840;47.562;18.738;2023-04-20T04:35:29;99660.84;;;7.90;77.68
51245;BME280;37840;47.562;18.738;2023-04-20T04:37:56;99652.91;;;7.90;77.92
51245;BME280;37840;47.562;18.738;2023-04-20T04:40:22;99651.88;;;7.93;78.30
51245;BME280;37840;47.562;18.738;2023-04-20T04:42:48;99652.63;;;7.81;80.55
51245;BME280;37840;47.562;18.738;2023-04-20T04:45:14;99668.44;;;7.82;80.13
51245;BME280;37840;47.562;18.738;2023-04-20T04:47:43;99661.41;;;7.81;80.84
51245;BME280;37840;47.562;18.738;2023-04-20T04:50:10;99664.72;;;7.85;81.18
51245;BME280;37840;47.562;18.738;2023-04-20T04:52:36;99666.63;;;7.97;81.06
51245;BME280;37840;47.562;18.738;2023-04-20T04:55:02;99663.13;;;8.11;80.64
51245;BME280;37840;47.562;18.738;2023-04-20T04:57:32;99662.44;;;8.22;80.59
51245;BME280;37840;47.562;18.738;2023-04-20T04:59:58;99666.50;;;8.27;80.56
51245;BME280;37840;47.562;18.738;2023-04-20T05:02:24;99662.53;;;8.49;79.82
51245;BME280;37840;47.562;18.738;2023-04-20T05:04:50;99657.78;;;8.54;79.77
51245;BME280;37840;47.562;18.738;2023-04-20T05:07:16;99659.88;;;8.63;79.36
51245;BME280;37840;47.562;18.738;2023-04-20T05:09:43;99664.94;;;8.66;80.49
51245;BME280;37840;47.562;18.738;2023-04-20T05:12:09;99666.59;;;8.82;79.79
51245;BME280;37840;47.562;18.738;2023-04-20T05:14:35;99667.69;;;8.65;79.98
51245;BME280;37840;47.562;18.738;2023-04-20T05:17:01;99665.66;;;8.83;80.35
51245;BME280;37840;47.562;18.738;2023-04-20T05:19:26;99672.16;;;8.91;81.36
51245;BME280;37840;47.562;18.738;2023-04-20T05:21:52;99672.22;;;9.04;80.06
51245;BME280;37840;47.562;18.738;2023-04-20T05:24:18;99663.19;;;9.07;80.19
51245;BME280;37840;47.562;18.738;2023-04-20T05:26:44;99668.94;;;9.13;80.10
51245;BME280;37840;47.562;18.738;2023-04-20T05:29:11;99666.44;;;9.25;79.86
51245;BME280;37840;47.562;18.738;2023-04-20T05:31:37;99665.16;;;9.30;79.22
51245;BME280;37840;47.562;18.738;2023-04-20T05:34:03;99668.06;;;9.40;78.91
51245;BME280;37840;47.562;18.738;2023-04-20T05:36:29;99672.97;;;9.46;78.76
51245;BME280;37840;47.562;18.738;2023-04-20T05:38:55;99665.34;;;9.54;78.73
51245;BME280;37840;47.562;18.738;2023-04-20T05:41:21;99670.75;;;9.66;79.19
51245;BME280;37840;47.562;18.738;2023-04-20T05:43:53;99666.28;;;9.79;80.14
51245;BME280;37840;47.562;18.738;2023-04-20T05:46:20;99674.38;;;9.90;79.78
51245;BME280;37840;47.562;18.738;2023-04-20T05:48:46;99674.81;;;9.97;79.61
51245;BME280;37840;47.562;18.738;2023-04-20T05:51:13;99677.97;;;10.02;78.86
51245;BME280;37840;47.562;18.738;2023-04-20T05:53:39;99677.62;;;10.19;78.36
51245;BME280;37840;47.562;18.738;2023-04-20T05:56:06;99671.38;;;10.33;78.03
51245;BME280;37840;47.562;18.738;2023-04-20T05:58:33;99677.62;;;10.45;77.96
51245;BME280;37840;47.562;18.738;2023-04-20T06:01:00;99680.87;;;10.61;77.84
51245;BME280;37840;47.562;18.738;2023-04-20T06:03:27;99684.06;;;10.67;77.32
51245;BME280;37840;47.562;18.738;2023-04-20T06:05:53;99683.16;;;10.79;77.06
51245;BME280;37840;47.562;18.738;2023-04-20T06:08:19;99690.59;;;10.87;77.10
51245;BME280;37840;47.562;18.738;2023-04-20T06:10:44;99692.69;;;10.94;77.34
51245;BME280;37840;47.562;18.738;2023-04-20T06:13:10;99696.25;;;11.06;78.29
51245;BME280;37840;47.562;18.738;2023-04-20T06:15:36;99693.88;;;11.14;77.53
51245;BME280;37840;47.562;18.738;2023-04-20T06:18:02;99694.09;;;11.35;77.84
51245;BME280;37840;47.562;18.738;2023-04-20T06:20:28;99700.81;;;11.52;75.79
51245;BME280;37840;47.562;18.738;2023-04-20T06:22:55;99698.38;;;11.49;74.76
51245;BME280;37840;47.562;18.738;2023-04-20T06:25:21;99692.38;;;11.58;74.90
51245;BME280;37840;47.562;18.738;2023-04-20T06:27:47;99697.59;;;11.71;74.06
51245;BME280;37840;47.562;18.738;2023-04-20T06:30:13;99695.69;;;11.84;73.71
51245;BME280;37840;47.562;18.738;2023-04-20T06:32:39;99699.75;;;12.01;73.76
51245;BME280;37840;47.562;18.738;2023-04-20T06:35:06;99703.25;;;12.13;73.58
51245;BME280;37840;47.562;18.738;2023-04-20T06:37:32;99703.87;;;12.28;73.00
51245;BME280;37840;47.562;18.738;2023-04-20T06:39:58;99694.66;;;12.32;72.78
51245;BME280;37840;47.562;18.738;2023-04-20T06:42:24;99699.25;;;12.53;72.42
51245;BME280;37840;47.562;18.738;2023-04-20T06:44:50;99702.25;;;12.71;71.50
51245;BME280;37840;47.562;18.738;2023-04-20T06:47:16;99702.09;;;12.83;70.95
51245;BME280;37840;47.562;18.738;2023-04-20T06:49:42;99697.56;;;13.06;70.93
51245;BME280;37840;47.562;18.738;2023-04-20T06:52:08;99697.88;;;13.24;70.95
51245;BME280;37840;47.562;18.738;2023-04-20T06:54:34;99695.19;;;13.36;69.94
51245;BME280;37840;47.562;18.738;2023-04-20T06:57:00;99689.44;;;13.52;69.91
51245;BME280;37840;47.562;18.738;2023-04-20T06:59:26;99694.81;;;13.61;68.85
51245;BME280;37840;47.562;18.738;2023-04-20T07:01:52;99688.06;;;13.78;67.48
51245;BME280;37840;47.562;18.738;2023-04-20T07:04:18;99697.94;;;13.87;68.21
51245;BME280;37840;47.562;18.738;2023-04-20T07:06:44;99702.97;;;14.02;65.47
51245;BME280;37840;47.562;18.738;2023-04-20T07:09:09;99698.91;;;14.07;67.20
51245;BME280;37840;47.562;18.738;2023-04-20T07:11:35;99696.75;;;14.22;65.56
51245;BME280;37840;47.562;18.738;2023-04-20T07:14:01;99695.97;;;14.41;65.61
51245;BME280;37840;47.562;18.738;2023-04-20T07:16:27;99699.22;;;14.45;65.42
51245;BME280;37840;47.562;18.738;2023-04-20T07:18:53;99701.72;;;14.58;63.26
51245;BME280;37840;47.562;18.738;2023-04-20T07:21:19;99700.19;;;14.65;63.53
51245;BME280;37840;47.562;18.738;2023-04-20T07:23:45;99706.13;;;14.78;62.29
51245;BME280;37840;47.562;18.738;2023-04-20T07:26:12;99701.47;;;14.80;62.39
51245;BME280;37840;47.562;18.738;2023-04-20T07:28:39;99702.78;;;14.96;58.68
51245;BME280;37840;47.562;18.738;2023-04-20T07:31:05;99703.47;;;14.98;59.48
51245;BME280;37840;47.562;18.738;2023-04-20T07:33:31;99707.41;;;14.94;59.66
51245;BME280;37840;47.562;18.738;2023-04-20T07:35:56;99708.72;;;15.19;60.69
51245;BME280;37840;47.562;18.738;2023-04-20T07:38:23;99700.28;;;15.33;58.93
51245;BME280;37840;47.562;18.738;2023-04-20T07:40:49;99702.97;;;15.14;60.07
51245;BME280;37840;47.562;18.738;2023-04-20T07:43:15;99702.97;;;15.33;59.98
51245;BME280;37840;47.562;18.738;2023-04-20T07:45:40;99710.16;;;15.33;59.92
51245;BME280;37840;47.562;18.738;2023-04-20T07:48:07;99705.50;;;15.54;58.65
51245;BME280;37840;47.562;18.738;2023-04-20T07:50:37;99706.34;;;15.64;58.23
51245;BME280;37840;47.562;18.738;2023-04-20T07:53:03;99701.13;;;15.92;57.02
51245;BME280;37840;47.562;18.738;2023-04-20T07:55:29;99709.59;;;15.78;58.72
51245;BME280;37840;47.562;18.738;2023-04-20T07:57:56;99701.00;;;15.84;58.01
51245;BME280;37840;47.562;18.738;2023-04-20T08:00:23;99701.38;;;15.89;57.31
51245;BME280;37840;47.562;18.738;2023-04-20T08:02:49;99703.37;;;15.87;60.58
51245;BME280;37840;47.562;18.738;2023-04-20T08:05:15;99709.44;;;15.99;58.62
51245;BME280;37840;47.562;18.738;2023-04-20T08:07:41;99708.47;;;15.70;55.86
51245;BME280;37840;47.562;18.738;2023-04-20T08:10:07;99705.66;;;15.82;57.08
51245;BME280;37840;47.562;18.738;2023-04-20T08:12:33;99710.84;;;15.93;58.17
51245;BME280;37840;47.562;18.738;2023-04-20T08:14:59;99703.56;;;16.23;57.86
51245;BME280;37840;47.562;18.738;2023-04-20T08:17:26;99706.03;;;16.44;57.41
51245;BME280;37840;47.562;18.738;2023-04-20T08:19:52;99702.66;;;16.42;57.79
51245;BME280;37840;47.562;18.738;2023-04-20T08:22:18;99699.16;;;16.59;56.94
51245;BME280;37840;47.562;18.738;2023-04-20T08:24:45;99699.47;;;16.56;56.45
51245;BME280;37840;47.562;18.738;2023-04-20T08:27:12;99705.09;;;16.63;56.51
51245;BME280;37840;47.562;18.738;2023-04-20T08:29:38;99704.50;;;16.69;53.41
51245;BME280;37840;47.562;18.738;2023-04-20T08:32:04;99711.13;;;16.47;52.86
51245;BME280;37840;47.562;18.738;2023-04-20T08:34:34;99706.69;;;16.56;54.34
51245;BME280;37840;47.562;18.738;2023-04-20T08:37:00;99699.41;;;16.66;54.73
51245;BME280;37840;47.562;18.738;2023-04-20T08:39:26;99704.50;;;16.69;56.74
51245;BME280;37840;47.562;18.738;2023-04-20T08:41:53;99706.19;;;16.70;57.29
51245;BME280;37840;47.562;18.738;2023-04-20T08:44:21;99702.28;;;16.92;55.75
51245;BME280;37840;47.562;18.738;2023-04-20T08:46:47;99697.66;;;16.84;55.89
51245;BME280;37840;47.562;18.738;2023-04-20T08:49:18;99699.38;;;16.85;56.51
51245;BME280;37840;47.562;18.738;2023-04-20T08:51:45;99698.78;;;17.09;55.93
51245;BME280;37840;47.562;18.738;2023-04-20T08:54:11;99696.00;;;17.01;56.18
51245;BME280;37840;47.562;18.738;2023-04-20T08:56:40;99697.06;;;17.08;55.23
51245;BME280;37840;47.562;18.738;2023-04-20T08:59:07;99689.72;;;17.28;53.27
51245;BME280;37840;47.562;18.738;2023-04-20T09:01:42;99696.16;;;17.36;54.23
51245;BME280;37840;47.562;18.738;2023-04-20T09:04:22;99701.25;;;17.39;52.46
51245;BME280;37840;47.562;18.738;2023-04-20T09:06:51;99692.72;;;17.43;52.93
51245;BME280;37840;47.562;18.738;2023-04-20T09:09:18;99696.78;;;17.47;51.81
51245;BME280;37840;47.562;18.738;2023-04-20T09:11:45;99689.84;;;17.63;52.53
51245;BME280;37840;47.562;18.738;2023-04-20T09:14:14;99693.09;;;17.66;51.40
51245;BME280;37840;47.562;18.738;2023-04-20T09:16:51;99696.94;;;17.46;49.88
51245;BME280;37840;47.562;18.738;2023-04-20T09:19:25;99696.28;;;17.70;49.36
51245;BME280;37840;47.562;18.738;2023-04-20T09:21:53;99689.16;;;17.79;51.93
51245;BME280;37840;47.562;18.738;2023-04-20T09:24:20;99689.22;;;17.69;54.74
51245;BME280;37840;47.562;18.738;2023-04-20T09:26:46;99686.06;;;17.91;51.94
51245;BME280;37840;47.562;18.738;2023-04-20T09:29:20;99686.97;;;18.00;50.01
51245;BME280;37840;47.562;18.738;2023-04-20T09:31:47;99685.88;;;18.11;51.07
51245;BME280;37840;47.562;18.738;2023-04-20T09:34:13;99689.34;;;18.03;49.11
51245;BME280;37840;47.562;18.738;2023-04-20T09:36:41;99686.00;;;17.65;50.58
51245;BME280;37840;47.562;18.738;2023-04-20T09:39:09;99682.94;;;17.60;46.12
51245;BME280;37840;47.562;18.738;2023-04-20T09:41:37;99680.66;;;17.47;49.96
51245;BME280;37840;47.562;18.738;2023-04-20T09:44:04;99686.03;;;17.29;52.66
51245;BME280;37840;47.562;18.738;2023-04-20T09:46:32;99678.19;;;17.36;52.04
51245;BME280;37840;47.562;18.738;2023-04-20T09:49:01;99674.88;;;17.42;52.91
51245;BME280;37840;47.562;18.738;2023-04-20T09:51:28;99672.97;;;17.52;49.51
51245;BME280;37840;47.562;18.738;2023-04-20T09:53:58;99674.63;;;17.71;50.61
51245;BME280;37840;47.562;18.738;2023-04-20T09:56:25;99668.28;;;17.81;49.93
51245;BME280;37840;47.562;18.738;2023-04-20T09:58:53;99675.53;;;17.98;51.26
51245;BME280;37840;47.562;18.738;2023-04-20T10:01:20;99680.47;;;18.11;48.74
51245;BME280;37840;47.562;18.738;2023-04-20T10:03:51;99676.13;;;18.18;49.14
51245;BME280;37840;47.562;18.738;2023-04-20T10:06:22;99674.47;;;18.25;49.40
51245;BME280;37840;47.562;18.738;2023-04-20T10:08:49;99669.28;;;18.24;48.18
51245;BME280;37840;47.562;18.738;2023-04-20T10:11:34;99668.34;;;18.07;48.86
51245;BME280;37840;47.562;18.738;2023-04-20T10:14:18;99672.47;;;18.27;49.39
51245;BME280;37840;47.562;18.738;2023-04-20T10:16:45;99666.53;;;18.16;48.62
51245;BME280;37840;47.562;18.738;2023-04-20T10:19:11;99663.38;;;18.20;47.65
51245;BME280;37840;47.562;18.738;2023-04-20T10:21:45;99666.00;;;18.46;50.27
51245;BME280;37840;47.562;18.738;2023-04-20T10:24:12;99663.03;;;18.58;50.13
51245;BME280;37840;47.562;18.738;2023-04-20T10:26:42;99664.91;;;18.65;47.89
51245;BME280;37840;47.562;18.738;2023-04-20T10:29:23;99656.59;;;18.50;44.24
51245;BME280;37840;47.562;18.738;2023-04-20T10:31:52;99663.31;;;18.46;45.60
51245;BME280;37840;47.562;18.738;2023-04-20T10:34:35;99656.78;;;18.49;46.75
51245;BME280;37840;47.562;18.738;2023-04-20T10:37:09;99649.50;;;18.41;45.24
51245;BME280;37840;47.562;18.738;2023-04-20T10:39:43;99651.47;;;18.31;48.19
51245;BME280;37840;47.562;18.738;2023-04-20T10:42:09;99651.81;;;18.28;47.17
51245;BME280;37840;47.562;18.738;2023-04-20T10:44:54;99642.47;;;18.14;49.45
51245;BME280;37840;47.562;18.738;2023-04-20T10:47:28;99647.09;;;18.30;49.62
51245;BME280;37840;47.562;18.738;2023-04-20T10:49:54;99645.63;;;18.44;47.91
51245;BME280;37840;47.562;18.738;2023-04-20T10:52:35;99639.72;;;18.40;47.10
51245;BME280;37840;47.562;18.738;2023-04-20T10:55:02;99633.66;;;18.38;47.43
51245;BME280;37840;47.562;18.738;2023-04-20T10:57:28;99640.69;;;18.31;46.38
51245;BME280;37840;47.562;18.738;2023-04-20T10:59:54;99640.06;;;18.37;48.05
51245;BME280;37840;47.562;18.738;2023-04-20T11:02:20;99636.03;;;18.41;46.54
51245;BME280;37840;47.562;18.738;2023-04-20T11:04:46;99630.78;;;18.31;49.27
51245;BME280;37840;47.562;18.738;2023-04-20T11:07:12;99631.44;;;18.33;50.88
51245;BME280;37840;47.562;18.738;2023-04-20T11:09:38;99624.34;;;18.24;49.91
51245;BME280;37840;47.562;18.738;2023-04-20T11:12:06;99628.13;;;18.40;48.28
51245;BME280;37840;47.562;18.738;2023-04-20T11:14:34;99631.66;;;18.40;48.33
51245;BME280;37840;47.562;18.738;2023-04-20T11:17:03;99634.53;;;18.39;47.25
51245;BME280;37840;47.562;18.738;2023-04-20T11:19:31;99631.66;;;18.40;47.61
51245;BME280;37840;47.562;18.738;2023-04-20T11:21:58;99629.78;;;18.32;48.40
51245;BME280;37840;47.562;18.738;2023-04-20T11:24:26;99623.72;;;18.30;48.84
51245;BME280;37840;47.562;18.738;2023-04-20T11:26:54;99622.75;;;18.48;48.34
51245;BME280;37840;47.562;18.738;2023-04-20T11:29:37;99621.47;;;18.60;47.37
51245;BME280;37840;47.562;18.738;2023-04-20T11:32:10;99620.91;;;18.48;47.07
51245;BME280;37840;47.562;18.738;2023-04-20T11:34:38;99616.06;;;18.52;47.69
51245;BME280;37840;47.562;18.738;2023-04-20T11:37:05;99620.37;;;18.37;46.71
51245;BME280;37840;47.562;18.738;2023-04-20T11:39:32;99617.06;;;18.51;48.91
51245;BME280;37840;47.562;18.738;2023-04-20T11:41:58;99604.59;;;18.50;46.68
51245;BME280;37840;47.562;18.738;2023-04-20T11:44:25;99615.50;;;18.40;47.45
51245;BME280;37840;47.562;18.738;2023-04-20T11:46:52;99606.94;;;18.53;46.57
51245;BME280;37840;47.562;18.738;2023-04-20T11:49:20;99608.53;;;18.72;47.20
51245;BME280;37840;47.562;18.738;2023-04-20T11:51:46;99607.53;;;18.73;46.90
51245;BME280;37840;47.562;18.738;2023-04-20T11:54:13;99602.28;;;18.71;47.04
51245;BME280;37840;47.562;18.738;2023-04-20T11:56:40;99613.44;;;18.77;45.18
51245;BME280;37840;47.562;18.738;2023-04-20T11:59:10;99613.72;;;18.65;44.25
51245;BME280;37840;47.562;18.738;2023-04-20T12:01:36;99617.06;;;18.59;44.35
51245;BME280;37840;47.562;18.738;2023-04-20T12:04:05;99613.19;;;18.53;46.09
51245;BME280;37840;47.562;18.738;2023-04-20T12:06:31;99607.97;;;18.52;46.01
51245;BME280;37840;47.562;18.738;2023-04-20T12:08:57;99606.63;;;18.56;45.95
51245;BME280;37840;47.562;18.738;2023-04-20T12:11:23;99614.53;;;18.49;46.92
51245;BME280;37840;47.562;18.738;2023-04-20T12:13:50;99612.84;;;18.48;47.09
51245;BME280;37840;47.562;18.738;2023-04-20T12:16:16;99604.59;;;18.50;47.13
51245;BME280;37840;47.562;18.738;2023-04-20T12:18:42;99608.62;;;18.46;45.67
51245;BME280;37840;47.562;18.738;2023-04-20T12:21:08;99602.94;;;18.49;47.42
51245;BME280;37840;47.562;18.738;2023-04-20T12:23:34;99605.94;;;18.46;47.28
51245;BME280;37840;47.562;18.738;2023-04-20T12:26:02;99603.72;;;18.41;46.02
51245;BME280;37840;47.562;18.738;2023-04-20T12:28:29;99597.00;;;18.37;47.05
51245;BME280;37840;47.562;18.738;2023-04-20T12:30:56;99602.03;;;18.32;47.44
51245;BME280;37840;47.562;18.738;2023-04-20T12:33:22;99599.66;;;18.29;46.65
51245;BME280;37840;47.562;18.738;2023-04-20T12:35:48;99606.53;;;18.31;47.41
51245;BME280;37840;47.562;18.738;2023-04-20T12:38:13;99597.50;;;18.41;45.40
51245;BME280;37840;47.562;18.738;2023-04-20T12:40:40;99594.44;;;18.36;45.84
51245;BME280;37840;47.562;18.738;2023-04-20T12:43:05;99592.44;;;18.38;46.46
51245;BME280;37840;47.562;18.738;2023-04-20T12:45:31;99587.44;;;18.43;45.98
51245;BME280;37840;47.562;18.738;2023-04-20T12:47:58;99593.19;;;18.56;47.11
51245;BME280;37840;47.562;18.738;2023-04-20T12:50:24;99589.97;;;18.52;46.87
51245;BME280;37840;47.562;18.738;2023-04-20T12:52:50;99587.31;;;18.69;46.26
51245;BME280;37840;47.562;18.738;2023-04-20T12:55:17;99580.44;;;18.74;45.51
51245;BME280;37840;47.562;18.738;2023-04-20T12:57:44;99577.53;;;18.68;45.31